Portada
METAR-TAF:

METAR-TAF

Aeroports :

Aizawl, Índia

latitud: 23-50-18N, longitud: 92-37-13E, altitud: 405 m

Observació

L'informe es va fer fa 5 hores i 42 minuts, a les 08:00 UTC
Vent 3 kt del Est/Nord-Est
Temperatura 27°C
Humitat 89%
Pressió 1004 hPa
Visibilitat: 2000 m
Escasses núvols a una alçada de 800 ft
Núvols disperses a una alçada de 1500 ft
Cel ennuvolat a una alçada de 10000 ft
boirina

METAR: VELP 020800Z 06003KT 2000 BR FEW008 SCT015 BKN100 27/25 Q1004 BECMG 3000 BR

Hora: 19:12 (13:42 UTC)

Pronòstic

L'informe es va fer fa 5 hores i 42 minuts, a les 08:00 UTC
Pronòstic vàlid del 02 a les 09 UTC al 02 a les 18 UTC
Vent 2 kt del Sud-Est
Visibilitat: 2000 m
Escasses núvols a una alçada de 800 ft
Núvols disperses a una alçada de 1500 ft
Cel ennuvolat a una alçada de 10000 ft
pluja, boirina

TAF: VELP 020800Z 0209/0218 13002KT 2000 -RA BR FEW008 SCT015 BKN100

Observacions i pronòstics meteorològics de més de 4000 aeroports (METAR i TAF).

Les estacions disponibles són els punts grocs i vermells al mapa.

Posi el ratolí al punt desitjat per veure el nom de l'estació.

Feu clic per veure les observacions i els pronòstics meteorològics.

Per canviar el mapa: feu clic els botons verds amb una creu de color negre per apropar; al botó verd amb un guió per allunyar la imatge; o en les fletxes verdes per a mapes adjacents.


METAR-TAF: